createdAt,value
2017-08-30T00:01:59.242Z,60.40
2017-08-30T00:04:26.753Z,60.20
2017-08-30T00:06:54.297Z,60.10
2017-08-30T00:09:21.815Z,60.00
2017-08-30T00:11:49.316Z,60.00
2017-08-30T00:14:16.864Z,60.10
2017-08-30T00:16:44.383Z,60.40
2017-08-30T00:19:11.879Z,60.40
2017-08-30T00:21:39.727Z,60.10
2017-08-30T00:24:07.246Z,59.90
2017-08-30T00:26:34.749Z,59.90
2017-08-30T00:29:02.321Z,59.60
2017-08-30T00:31:29.838Z,59.50
2017-08-30T00:33:57.335Z,59.30
2017-08-30T00:36:24.875Z,59.90
2017-08-30T00:38:52.385Z,59.40
2017-08-30T00:41:19.902Z,59.60
2017-08-30T00:43:47.446Z,59.70
2017-08-30T00:46:14.959Z,59.70
2017-08-30T00:48:42.480Z,59.40
2017-08-30T00:51:10.007Z,59.50
2017-08-30T00:53:37.526Z,59.60
2017-08-30T00:56:05.037Z,59.80
2017-08-30T00:58:32.583Z,59.90
2017-08-30T01:01:00.077Z,60.30
2017-08-30T01:03:27.602Z,60.40
2017-08-30T01:05:55.154Z,60.60
2017-08-30T01:08:22.656Z,60.80
2017-08-30T01:10:50.151Z,60.30
2017-08-30T01:13:17.702Z,60.00
2017-08-30T01:15:45.214Z,59.80
2017-08-30T01:18:12.726Z,59.60
2017-08-30T01:20:40.347Z,59.40
2017-08-30T01:23:07.848Z,59.40
2017-08-30T01:25:35.343Z,59.70
2017-08-30T01:28:02.891Z,59.70
2017-08-30T01:30:31.151Z,59.40
2017-08-30T01:32:58.653Z,59.40
2017-08-30T01:35:26.179Z,59.30
2017-08-30T01:37:53.675Z,59.30
2017-08-30T01:40:21.252Z,59.60
2017-08-30T01:42:48.780Z,59.80
2017-08-30T01:45:16.282Z,59.90
2017-08-30T01:47:43.804Z,59.90
2017-08-30T01:50:11.336Z,60.10
2017-08-30T01:52:38.892Z,60.30
2017-08-30T01:55:06.400Z,60.20
2017-08-30T01:57:33.923Z,60.80
2017-08-30T02:00:01.428Z,61.10
2017-08-30T02:02:28.946Z,61.80
2017-08-30T02:04:56.476Z,62.60
2017-08-30T02:07:23.976Z,63.40
2017-08-30T02:09:51.480Z,64.50
2017-08-30T02:12:19.034Z,65.00
2017-08-30T02:14:46.553Z,65.30
2017-08-30T02:17:14.056Z,65.40
2017-08-30T02:19:42.357Z,65.60
2017-08-30T02:22:09.878Z,65.50
2017-08-30T02:24:37.371Z,65.80
2017-08-30T02:27:04.925Z,65.70
2017-08-30T02:29:32.440Z,66.00
2017-08-30T02:31:59.955Z,65.70
2017-08-30T02:34:27.488Z,65.70
2017-08-30T02:36:54.994Z,66.40
2017-08-30T02:39:22.515Z,66.10
2017-08-30T02:41:50.063Z,65.70
2017-08-30T02:44:18.346Z,65.80
2017-08-30T02:46:45.840Z,65.70
2017-08-30T02:49:13.378Z,65.70
2017-08-30T02:51:40.936Z,66.30
2017-08-30T02:54:09.201Z,68.40
2017-08-30T02:56:36.735Z,68.30
2017-08-30T02:59:04.255Z,68.70
2017-08-30T03:01:31.769Z,69.70
2017-08-30T03:03:59.302Z,70.10
2017-08-30T03:06:26.830Z,71.40
2017-08-30T03:08:54.351Z,71.40
2017-08-30T03:11:21.902Z,72.20
2017-08-30T03:13:49.408Z,72.80
2017-08-30T03:16:16.926Z,73.30
2017-08-30T03:18:44.459Z,73.80
2017-08-30T03:21:11.968Z,74.20
2017-08-30T03:23:39.491Z,75.30
2017-08-30T03:26:07.098Z,75.80
2017-08-30T03:28:34.602Z,75.70
2017-08-30T03:31:02.131Z,76.30
2017-08-30T03:33:29.669Z,77.20
2017-08-30T03:35:57.216Z,78.10
2017-08-30T03:38:24.721Z,78.80
2017-08-30T03:40:52.348Z,79.70
2017-08-30T03:43:19.866Z,80.80
2017-08-30T03:45:47.388Z,81.10
2017-08-30T03:48:14.948Z,81.90
2017-08-30T03:50:42.474Z,82.20
2017-08-30T03:53:09.980Z,83.40
2017-08-30T03:55:37.527Z,83.80
2017-08-30T03:58:05.032Z,83.70
2017-08-30T04:00:32.545Z,84.10
2017-08-30T04:03:00.098Z,83.30
2017-08-30T04:05:27.614Z,84.00
2017-08-30T04:07:55.128Z,85.00
2017-08-30T04:10:22.674Z,85.80
2017-08-30T04:12:50.176Z,86.30
2017-08-30T04:15:17.675Z,87.00
2017-08-30T04:17:45.226Z,87.30
2017-08-30T04:20:12.745Z,87.70
2017-08-30T04:22:40.270Z,88.60
2017-08-30T04:25:07.808Z,88.90
2017-08-30T04:27:35.308Z,89.30
2017-08-30T04:30:02.816Z,89.80
2017-08-30T04:32:30.363Z,89.80
2017-08-30T04:34:57.883Z,89.90
2017-08-30T04:37:25.496Z,90.10
2017-08-30T04:39:53.027Z,90.40
2017-08-30T04:42:20.532Z,90.40
2017-08-30T04:44:48.040Z,90.30
2017-08-30T04:47:15.571Z,90.50
2017-08-30T04:49:43.086Z,90.40
2017-08-30T04:52:10.598Z,90.60
2017-08-30T04:54:38.203Z,90.70
2017-08-30T04:57:05.840Z,90.70
2017-08-30T04:59:33.339Z,90.60
2017-08-30T05:02:00.869Z,90.40
2017-08-30T05:04:28.390Z,90.20
2017-08-30T05:06:55.893Z,90.30
2017-08-30T05:09:23.430Z,90.20
2017-08-30T05:11:51.015Z,90.30
2017-08-30T05:14:18.533Z,90.10
2017-08-30T05:16:46.828Z,89.30
2017-08-30T05:19:14.350Z,89.20
2017-08-30T05:21:41.868Z,88.80
2017-08-30T05:24:09.428Z,88.40
2017-08-30T05:26:36.932Z,88.10
2017-08-30T05:29:04.453Z,87.10
2017-08-30T05:31:32.001Z,87.50
2017-08-30T05:33:59.514Z,86.40
2017-08-30T05:36:27.015Z,85.80
2017-08-30T05:38:54.548Z,84.90
2017-08-30T05:41:22.824Z,84.20
2017-08-30T05:43:50.347Z,84.20
2017-08-30T05:46:17.875Z,83.50
2017-08-30T05:48:45.394Z,83.10
2017-08-30T05:51:12.942Z,83.20
2017-08-30T05:53:40.462Z,83.30
2017-08-30T05:56:07.965Z,83.00
2017-08-30T05:58:35.487Z,83.00
2017-08-30T06:01:02.987Z,81.50
2017-08-30T06:03:30.540Z,81.30
2017-08-30T06:05:58.066Z,81.30
2017-08-30T06:08:25.600Z,80.10
2017-08-30T06:10:53.099Z,80.50
2017-08-30T06:13:20.617Z,80.60
2017-08-30T06:15:48.151Z,80.90
2017-08-30T06:18:15.670Z,81.30
2017-08-30T06:20:43.214Z,81.00
2017-08-30T06:23:10.849Z,78.50
2017-08-30T06:25:38.383Z,78.00
2017-08-30T06:28:06.652Z,75.90
2017-08-30T06:30:34.963Z,74.30
2017-08-30T06:33:02.465Z,74.20
2017-08-30T06:35:29.968Z,74.10
2017-08-30T06:37:57.492Z,71.40
2017-08-30T06:40:25.773Z,68.00
2017-08-30T06:42:53.335Z,68.00
2017-08-30T06:45:20.835Z,66.50
2017-08-30T06:47:48.390Z,66.30
2017-08-30T06:50:15.891Z,65.90
2017-08-30T06:52:43.397Z,63.90
2017-08-30T06:55:10.928Z,64.40
2017-08-30T06:57:39.210Z,63.90
2017-08-30T07:00:06.730Z,63.80
2017-08-30T07:02:34.254Z,63.90
2017-08-30T07:05:01.770Z,63.20
2017-08-30T07:07:29.291Z,64.20
2017-08-30T07:09:56.829Z,63.50
2017-08-30T07:12:24.362Z,63.10
2017-08-30T07:14:52.675Z,60.60
2017-08-30T07:17:20.180Z,60.60
2017-08-30T07:19:47.688Z,58.10
2017-08-30T07:22:15.216Z,57.10
2017-08-30T07:24:42.724Z,55.90
2017-08-30T07:27:10.356Z,53.20
2017-08-30T07:29:37.874Z,54.00
2017-08-30T07:32:05.376Z,51.70
2017-08-30T07:34:32.922Z,49.60
2017-08-30T07:37:00.444Z,48.30
2017-08-30T07:39:27.979Z,46.50
2017-08-30T07:41:55.500Z,45.50
2017-08-30T07:44:23.065Z,46.10
2017-08-30T07:46:50.600Z,44.10
2017-08-30T07:49:18.114Z,43.60
2017-08-30T07:51:45.635Z,43.30
2017-08-30T07:54:13.234Z,43.30
2017-08-30T07:56:40.736Z,44.50
2017-08-30T07:59:08.282Z,41.90
2017-08-30T08:01:35.785Z,40.30
2017-08-30T08:04:03.303Z,38.20
2017-08-30T08:06:31.611Z,37.00
2017-08-30T08:08:59.107Z,36.90
2017-08-30T08:11:26.628Z,37.20
2017-08-30T08:13:54.185Z,34.80
2017-08-30T08:16:21.735Z,33.80
2017-08-30T08:18:49.258Z,33.80
2017-08-30T08:21:16.773Z,36.20
2017-08-30T08:23:44.311Z,38.40
2017-08-30T08:26:11.812Z,39.30
2017-08-30T08:28:39.337Z,39.40
2017-08-30T08:31:06.895Z,39.80
2017-08-30T08:33:34.415Z,39.00
2017-08-30T08:36:01.953Z,38.80
2017-08-30T08:38:29.474Z,36.30
2017-08-30T08:40:56.995Z,34.70
2017-08-30T08:43:24.496Z,36.20
2017-08-30T08:45:52.004Z,36.70
2017-08-30T08:48:19.536Z,35.00
2017-08-30T08:50:47.055Z,37.40
2017-08-30T08:53:14.583Z,36.80
2017-08-30T08:55:42.134Z,37.40
2017-08-30T08:58:09.646Z,41.80
2017-08-30T09:00:37.157Z,42.90
2017-08-30T09:03:04.680Z,44.60
2017-08-30T09:05:32.179Z,45.30
2017-08-30T09:07:59.707Z,46.20
2017-08-30T09:10:27.208Z,46.20
2017-08-30T09:12:54.715Z,46.80
2017-08-30T09:15:22.269Z,46.90
2017-08-30T09:17:49.794Z,47.10
2017-08-30T09:20:17.317Z,47.00
2017-08-30T09:22:44.862Z,48.10
2017-08-30T09:25:12.375Z,48.30
2017-08-30T09:27:39.891Z,48.80
2017-08-30T09:30:07.438Z,48.90
2017-08-30T09:32:34.943Z,47.90
2017-08-30T09:35:02.454Z,48.70
2017-08-30T09:37:29.973Z,48.40
2017-08-30T09:39:57.476Z,48.00
2017-08-30T09:42:25.007Z,48.10
2017-08-30T09:44:52.651Z,47.40
2017-08-30T09:47:20.171Z,47.60
2017-08-30T09:49:47.700Z,47.30
2017-08-30T09:52:15.220Z,47.50
2017-08-30T09:54:42.724Z,48.00
2017-08-30T09:57:10.266Z,46.50
2017-08-30T09:59:37.771Z,46.30
2017-08-30T10:02:05.360Z,45.10
2017-08-30T10:04:32.884Z,41.40
2017-08-30T10:07:00.392Z,39.90
2017-08-30T10:09:27.924Z,36.70
2017-08-30T10:11:55.428Z,35.40
2017-08-30T10:14:22.932Z,34.10
2017-08-30T10:16:50.460Z,32.70
2017-08-30T10:19:18.067Z,33.20
2017-08-30T10:21:45.560Z,34.20
2017-08-30T10:24:13.111Z,31.40
2017-08-30T10:26:40.946Z,31.40
2017-08-30T10:29:08.448Z,31.30
2017-08-30T10:31:35.980Z,28.20
2017-08-30T10:34:03.490Z,27.50
2017-08-30T10:36:31.002Z,27.50
2017-08-30T10:38:58.535Z,27.20
2017-08-30T10:41:26.042Z,28.80
2017-08-30T10:43:53.547Z,28.60
2017-08-30T10:46:21.075Z,26.80
2017-08-30T10:48:48.586Z,26.80
2017-08-30T10:51:16.122Z,25.50
2017-08-30T10:53:43.692Z,25.90
2017-08-30T10:56:11.214Z,24.50
2017-08-30T10:58:39.495Z,26.80
2017-08-30T11:01:07.023Z,26.80
2017-08-30T11:03:34.539Z,27.90
2017-08-30T11:06:02.059Z,29.50
2017-08-30T11:08:30.364Z,31.30
2017-08-30T11:10:57.867Z,31.40
2017-08-30T11:13:25.399Z,31.90
2017-08-30T11:15:52.950Z,33.00
2017-08-30T11:18:20.522Z,34.00
2017-08-30T11:20:48.039Z,33.70
2017-08-30T11:23:16.370Z,33.30
2017-08-30T11:25:43.894Z,33.30
2017-08-30T11:28:11.395Z,33.10
2017-08-30T11:30:39.036Z,35.50
2017-08-30T11:33:06.562Z,35.70
2017-08-30T11:35:34.096Z,34.10
2017-08-30T11:38:01.642Z,34.00
2017-08-30T11:40:29.263Z,33.00
2017-08-30T11:42:56.776Z,33.80
2017-08-30T11:45:24.316Z,34.80
2017-08-30T11:47:51.840Z,36.10
2017-08-30T11:50:19.359Z,37.90
2017-08-30T11:52:46.891Z,37.90
2017-08-30T11:55:14.415Z,37.90
2017-08-30T11:57:41.942Z,40.20
2017-08-30T12:00:09.531Z,37.10
2017-08-30T12:02:37.032Z,38.00
2017-08-30T12:05:04.550Z,34.10
2017-08-30T12:07:32.079Z,31.30
2017-08-30T12:09:59.598Z,28.10
2017-08-30T12:12:27.104Z,27.00
2017-08-30T12:14:54.667Z,28.50
2017-08-30T12:17:22.172Z,27.60
2017-08-30T12:19:49.682Z,27.00
2017-08-30T12:22:17.224Z,25.10
2017-08-30T12:24:44.749Z,24.80
2017-08-30T12:27:12.251Z,24.20
2017-08-30T12:29:39.802Z,24.40
2017-08-30T12:32:07.322Z,24.20
2017-08-30T12:34:34.844Z,24.10
2017-08-30T12:37:08.120Z,23.90
2017-08-30T12:39:38.580Z,23.90
2017-08-30T12:42:06.084Z,25.10
2017-08-30T12:44:33.638Z,27.70
2017-08-30T12:47:01.140Z,26.40
2017-08-30T12:49:28.640Z,26.70
2017-08-30T12:51:56.183Z,25.90
2017-08-30T12:54:23.709Z,27.10
2017-08-30T12:56:51.235Z,25.50
2017-08-30T12:59:18.768Z,26.30
2017-08-30T13:01:46.282Z,26.30
2017-08-30T13:04:13.797Z,27.10
2017-08-30T13:06:41.328Z,28.70
2017-08-30T13:09:08.868Z,27.40
2017-08-30T13:11:36.387Z,28.20
2017-08-30T13:14:03.935Z,29.80
2017-08-30T13:16:31.454Z,29.30
2017-08-30T13:18:58.977Z,29.20
2017-08-30T13:21:26.521Z,31.70
2017-08-30T13:23:54.042Z,33.70
2017-08-30T13:26:21.587Z,33.00
2017-08-30T13:28:49.241Z,35.00
2017-08-30T13:31:17.519Z,36.30
2017-08-30T13:33:45.043Z,35.10
2017-08-30T13:36:12.576Z,37.80
2017-08-30T13:38:40.093Z,38.20
2017-08-30T13:41:07.591Z,37.50
2017-08-30T13:43:35.903Z,35.50
2017-08-30T13:46:03.421Z,35.40
2017-08-30T13:48:30.923Z,34.80
2017-08-30T13:50:58.464Z,35.00
2017-08-30T13:53:26.948Z,35.30
2017-08-30T13:55:54.462Z,35.30
2017-08-30T13:58:22.011Z,35.30
2017-08-30T14:00:49.539Z,35.30
2017-08-30T14:03:17.047Z,35.10
2017-08-30T14:05:44.593Z,34.90
2017-08-30T14:08:12.134Z,34.60
2017-08-30T14:10:39.647Z,34.10
2017-08-30T14:13:07.184Z,34.30
2017-08-30T14:15:34.710Z,34.00
2017-08-30T14:18:02.213Z,34.30
2017-08-30T14:20:29.825Z,35.30
2017-08-30T14:22:57.347Z,39.10
2017-08-30T14:25:24.943Z,39.00
2017-08-30T14:27:52.480Z,41.20
2017-08-30T14:30:20.009Z,42.30
2017-08-30T14:32:47.522Z,42.70
2017-08-30T14:35:15.051Z,41.00
2017-08-30T14:37:43.320Z,41.10
2017-08-30T14:40:10.838Z,41.10
2017-08-30T14:42:38.388Z,38.90
2017-08-30T14:45:05.914Z,37.80
2017-08-30T14:47:34.305Z,36.90
2017-08-30T14:50:01.861Z,36.10
2017-08-30T14:52:29.386Z,37.00
2017-08-30T14:54:56.901Z,37.60
2017-08-30T14:57:24.440Z,36.70
2017-08-30T14:59:51.959Z,38.10
2017-08-30T15:02:20.228Z,39.50
2017-08-30T15:04:47.760Z,38.90
2017-08-30T15:07:15.294Z,39.00
2017-08-30T15:09:42.796Z,39.90
2017-08-30T15:12:10.346Z,39.40
2017-08-30T15:14:37.847Z,39.00
2017-08-30T15:17:05.361Z,39.60
2017-08-30T15:19:32.911Z,42.00
2017-08-30T15:22:00.415Z,44.40
2017-08-30T15:24:27.914Z,43.70
2017-08-30T15:26:55.755Z,45.40
2017-08-30T15:29:23.255Z,46.00
2017-08-30T15:31:50.769Z,46.70
2017-08-30T15:34:18.303Z,47.20
2017-08-30T15:36:46.590Z,49.20
2017-08-30T15:39:14.114Z,49.10
2017-08-30T15:41:41.653Z,48.70
2017-08-30T15:44:09.192Z,50.30
2017-08-30T15:46:36.710Z,50.80
2017-08-30T15:49:04.263Z,50.90
2017-08-30T15:51:31.756Z,52.40
2017-08-30T15:53:59.259Z,52.40
2017-08-30T15:56:26.810Z,52.70
2017-08-30T15:58:54.342Z,53.40
2017-08-30T16:01:21.857Z,53.10
2017-08-30T16:03:49.396Z,54.00
2017-08-30T16:06:16.904Z,53.40
2017-08-30T16:08:44.429Z,53.90
2017-08-30T16:11:11.964Z,53.80
2017-08-30T16:13:39.588Z,54.30
2017-08-30T16:16:07.094Z,54.60
2017-08-30T16:18:34.635Z,54.80
2017-08-30T16:21:02.136Z,55.20
2017-08-30T16:23:29.732Z,55.80
2017-08-30T16:25:57.263Z,56.20
2017-08-30T16:28:24.772Z,56.40
2017-08-30T16:30:52.272Z,56.90
2017-08-30T16:33:19.866Z,56.80
2017-08-30T16:35:47.368Z,57.20
2017-08-30T16:38:14.926Z,57.80
2017-08-30T16:40:42.455Z,57.80
2017-08-30T16:43:09.957Z,58.60
2017-08-30T16:45:37.473Z,59.00
2017-08-30T16:48:05.026Z,58.80
2017-08-30T16:50:32.544Z,59.40
2017-08-30T16:53:00.825Z,60.20
2017-08-30T16:55:28.374Z,60.10
2017-08-30T16:57:56.664Z,59.00
2017-08-30T17:00:24.544Z,59.00
2017-08-30T17:02:52.071Z,59.80
2017-08-30T17:05:20.358Z,64.80
2017-08-30T17:07:48.642Z,69.80
2017-08-30T17:10:16.224Z,69.90
2017-08-30T17:12:43.742Z,71.20
2017-08-30T17:15:11.279Z,73.00
2017-08-30T17:17:38.826Z,71.00
2017-08-30T17:20:06.331Z,73.50
2017-08-30T17:22:34.635Z,78.50
2017-08-30T17:25:02.178Z,78.60
2017-08-30T17:27:29.703Z,78.50
2017-08-30T17:29:57.226Z,82.20
2017-08-30T17:32:24.794Z,84.70
2017-08-30T17:34:52.328Z,84.00
2017-08-30T17:37:19.849Z,86.20
2017-08-30T17:39:48.166Z,90.00
2017-08-30T17:42:15.685Z,90.20
2017-08-30T17:44:43.972Z,90.90
2017-08-30T17:47:11.503Z,90.80
2017-08-30T17:49:39.018Z,91.70
2017-08-30T17:52:06.575Z,92.40
2017-08-30T17:54:34.105Z,93.30
2017-08-30T17:57:01.622Z,93.80
2017-08-30T17:59:29.142Z,93.90
2017-08-30T18:01:56.686Z,92.90
2017-08-30T18:04:24.207Z,92.60
2017-08-30T18:06:51.725Z,92.60
2017-08-30T18:09:19.256Z,92.50
2017-08-30T18:11:46.770Z,92.50
2017-08-30T18:14:14.300Z,93.30
2017-08-30T18:16:41.823Z,92.80
2017-08-30T18:19:09.350Z,93.60
2017-08-30T18:21:36.862Z,92.20
2017-08-30T18:24:04.436Z,92.70
2017-08-30T18:26:31.935Z,93.20
2017-08-30T18:28:59.483Z,93.60
2017-08-30T18:31:27.010Z,93.20
2017-08-30T18:33:54.550Z,93.90
2017-08-30T18:36:22.815Z,93.20
2017-08-30T18:38:51.121Z,92.70
2017-08-30T18:41:18.620Z,92.70
2017-08-30T18:43:46.146Z,93.00
2017-08-30T18:46:13.647Z,92.80
2017-08-30T18:48:41.189Z,93.70
2017-08-30T18:51:08.688Z,93.70
2017-08-30T18:53:36.586Z,93.60
2017-08-30T18:56:04.870Z,93.50
2017-08-30T18:58:32.376Z,93.50
2017-08-30T19:00:59.916Z,93.80
2017-08-30T19:03:27.434Z,94.60
2017-08-30T19:05:54.985Z,95.30
2017-08-30T19:08:22.497Z,95.70
2017-08-30T19:10:50.015Z,96.20
2017-08-30T19:13:17.562Z,96.20
2017-08-30T19:15:45.064Z,96.20
2017-08-30T19:18:12.606Z,96.60
2017-08-30T19:20:40.107Z,96.60
2017-08-30T19:23:07.654Z,96.50
2017-08-30T19:25:35.167Z,96.40
2017-08-30T19:28:02.690Z,96.60
2017-08-30T19:30:30.247Z,96.70
2017-08-30T19:32:57.767Z,96.60
2017-08-30T19:35:25.273Z,96.70
2017-08-30T19:37:52.817Z,96.20
2017-08-30T19:40:20.337Z,96.40
2017-08-30T19:42:47.849Z,96.90
2017-08-30T19:45:15.380Z,97.00
2017-08-30T19:47:42.898Z,97.20
2017-08-30T19:50:10.419Z,97.70
2017-08-30T19:52:37.978Z,97.50
2017-08-30T19:55:05.480Z,97.90
2017-08-30T19:57:32.988Z,98.10
2017-08-30T20:00:01.289Z,98.30
2017-08-30T20:02:28.794Z,98.30
2017-08-30T20:04:56.412Z,98.80
2017-08-30T20:07:23.967Z,98.70
2017-08-30T20:09:51.504Z,99.00
2017-08-30T20:12:19.018Z,98.40
2017-08-30T20:14:46.548Z,97.90
2017-08-30T20:17:14.102Z,97.70
2017-08-30T20:19:41.632Z,97.00
2017-08-30T20:22:09.160Z,97.50
2017-08-30T20:24:36.687Z,97.00
2017-08-30T20:27:04.196Z,96.90
2017-08-30T20:29:31.735Z,96.80
2017-08-30T20:31:59.263Z,96.60
2017-08-30T20:34:27.551Z,96.10
2017-08-30T20:36:55.084Z,96.60
2017-08-30T20:39:22.647Z,97.10
2017-08-30T20:41:50.164Z,96.90
2017-08-30T20:44:18.478Z,96.50
2017-08-30T20:46:46.049Z,96.30
2017-08-30T20:49:13.569Z,95.80
2017-08-30T20:51:41.160Z,95.80
2017-08-30T20:54:08.660Z,94.80
2017-08-30T20:56:36.193Z,94.20
2017-08-30T20:59:03.696Z,94.40
2017-08-30T21:01:31.996Z,95.90
2017-08-30T21:03:59.533Z,95.90
2017-08-30T21:06:27.054Z,95.50
2017-08-30T21:08:54.689Z,95.70
2017-08-30T21:11:22.192Z,95.60
2017-08-30T21:13:49.809Z,95.70
2017-08-30T21:16:17.359Z,96.60
2017-08-30T21:18:44.891Z,96.50
2017-08-30T21:21:12.392Z,96.80
2017-08-30T21:23:39.946Z,96.90
2017-08-30T21:26:07.468Z,96.60
2017-08-30T21:28:34.990Z,96.80
2017-08-30T21:31:02.547Z,96.70
2017-08-30T21:33:30.068Z,97.10
2017-08-30T21:35:57.578Z,97.10
2017-08-30T21:38:25.126Z,97.50
2017-08-30T21:40:52.627Z,97.20
2017-08-30T21:43:20.159Z,97.10
2017-08-30T21:45:47.659Z,96.80
2017-08-30T21:48:15.174Z,96.80
2017-08-30T21:50:42.704Z,97.10
2017-08-30T21:53:10.991Z,97.00
2017-08-30T21:55:38.564Z,97.00
2017-08-30T21:58:06.100Z,97.10
2017-08-30T22:00:33.603Z,96.70
2017-08-30T22:03:01.117Z,96.70
2017-08-30T22:05:28.648Z,96.30
2017-08-30T22:07:56.167Z,96.10
2017-08-30T22:10:23.687Z,95.90
2017-08-30T22:12:52.001Z,96.40
2017-08-30T22:15:20.273Z,96.40
2017-08-30T22:17:47.775Z,96.40
2017-08-30T22:20:15.304Z,96.70
2017-08-30T22:22:42.807Z,96.50
2017-08-30T22:25:10.316Z,96.60
2017-08-30T22:27:37.867Z,96.50
2017-08-30T22:30:05.369Z,96.80
2017-08-30T22:32:32.891Z,97.00
2017-08-30T22:35:00.445Z,96.60
2017-08-30T22:37:27.949Z,96.60
2017-08-30T22:39:55.489Z,96.90
2017-08-30T22:42:23.014Z,97.00
2017-08-30T22:44:50.511Z,96.60
2017-08-30T22:47:18.045Z,96.50
2017-08-30T22:49:45.562Z,96.30
2017-08-30T22:52:13.112Z,96.30
2017-08-30T22:54:41.384Z,96.20
2017-08-30T22:57:08.891Z,96.20
2017-08-30T22:59:36.438Z,96.20
2017-08-30T23:02:03.948Z,95.90
2017-08-30T23:04:31.451Z,95.90
2017-08-30T23:06:58.983Z,95.80
2017-08-30T23:09:26.484Z,95.70
2017-08-30T23:11:54.010Z,95.50
2017-08-30T23:14:21.535Z,95.50
2017-08-30T23:16:49.040Z,95.40
2017-08-30T23:19:16.566Z,95.60
2017-08-30T23:21:44.122Z,95.70
2017-08-30T23:24:12.435Z,95.40
2017-08-30T23:26:39.945Z,95.40
2017-08-30T23:29:07.495Z,95.60
2017-08-30T23:31:34.997Z,95.80
2017-08-30T23:34:02.517Z,96.20
2017-08-30T23:36:30.126Z,96.70
2017-08-30T23:38:57.657Z,97.00
2017-08-30T23:41:25.160Z,97.20
2017-08-30T23:43:52.696Z,97.40
2017-08-30T23:46:20.195Z,97.10
2017-08-30T23:48:47.714Z,97.20
2017-08-30T23:51:15.265Z,96.80
2017-08-30T23:53:42.782Z,96.90
2017-08-30T23:56:10.294Z,96.60
2017-08-30T23:58:37.848Z,96.60
